KGFL/GFL METAR and TAF weather

Enter ICAO airport designator
Station Type Date Time Source
KGFL METAR 2021/04/13 08:05 UTC NOAA

KGFL 130805Z AUTO 23003KT 1 1/2SM BR FEW001 SCT037 02/01 A3001 RMK AO2 T00170006


Station Type Date Time Source
KGFL Decoded METAR 2021/04/13 08:05 UTC NOAA

FLOYD BENNETT MEMORIAL AIRPORT , NY, United States (KGFL) 43-20N 073-37W 103M
Apr 13, 2021 - 04:05 AM EDT / 2021.04.13 0805 UTC
Wind: from the SW (230 degrees) at 3 MPH (3 KT):0
Visibility: 1 1/2 mile(s):0
Sky conditions: partly cloudy
Weather: mist
Temperature: 35.1 F (1.7 C)
Dew Point: 33.1 F (0.6 C)
Relative Humidity: 92%
Pressure (altimeter): 30.01 in. Hg (1016 hPa)
ob: KGFL 130805Z AUTO 23003KT 1 1/2SM BR FEW001 SCT037 02/01 A3001 RMK AO2 T00170006
cycle: 8

Station Type Date Time Source
KGFL TAF 2021/04/13 08:45 UTC NOAA

TAF
AMD KGFL 130743Z 1308/1406 00000KT 4SM BR BKN040
TEMPO 1308/1312 2SM BR SCT040 SCT250
FM131300 04005KT P6SM BKN050
FM132200 VRB03KT P6SM SCT050 SCT100 SCT250

Example: see airport list